sensor_id;sensor_type;location;lat;lon;timestamp;P1;durP1;ratioP1;P2;durP2;ratioP2
81714;SDS011;71125;44.066;2.982;2023-11-18T00:02:19;0.00;;;0.00;;
81714;SDS011;71125;44.066;2.982;2023-11-18T00:07:11;0.00;;;0.00;;
81714;SDS011;71125;44.066;2.982;2023-11-18T00:12:03;0.00;;;0.00;;
81714;SDS011;71125;44.066;2.982;2023-11-18T00:14:29;0.00;;;0.00;;
81714;SDS011;71125;44.066;2.982;2023-11-18T00:16:55;0.00;;;0.00;;
81714;SDS011;71125;44.066;2.982;2023-11-18T00:19:24;0.00;;;0.00;;
81714;SDS011;71125;44.066;2.982;2023-11-18T00:24:16;0.00;;;0.00;;
81714;SDS011;71125;44.066;2.982;2023-11-18T00:29:07;0.00;;;0.00;;
81714;SDS011;71125;44.066;2.982;2023-11-18T00:31:33;0.10;;;0.10;;
81714;SDS011;71125;44.066;2.982;2023-11-18T00:33:59;0.00;;;0.00;;
81714;SDS011;71125;44.066;2.982;2023-11-18T00:36:26;0.00;;;0.00;;
81714;SDS011;71125;44.066;2.982;2023-11-18T00:38:53;0.00;;;0.00;;
81714;SDS011;71125;44.066;2.982;2023-11-18T00:43:46;0.00;;;0.00;;
81714;SDS011;71125;44.066;2.982;2023-11-18T00:48:38;0.00;;;0.00;;
81714;SDS011;71125;44.066;2.982;2023-11-18T00:51:07;0.00;;;0.00;;
81714;SDS011;71125;44.066;2.982;2023-11-18T00:53:33;0.00;;;0.00;;
81714;SDS011;71125;44.066;2.982;2023-11-18T00:58:26;0.00;;;0.00;;
81714;SDS011;71125;44.066;2.982;2023-11-18T01:00:53;0.00;;;0.00;;
81714;SDS011;71125;44.066;2.982;2023-11-18T01:05:45;0.00;;;0.00;;
81714;SDS011;71125;44.066;2.982;2023-11-18T01:08:11;0.00;;;0.00;;
81714;SDS011;71125;44.066;2.982;2023-11-18T01:10:38;0.00;;;0.00;;
81714;SDS011;71125;44.066;2.982;2023-11-18T01:15:31;0.00;;;0.00;;
81714;SDS011;71125;44.066;2.982;2023-11-18T01:17:57;0.00;;;0.00;;
81714;SDS011;71125;44.066;2.982;2023-11-18T01:20:23;0.00;;;0.00;;
81714;SDS011;71125;44.066;2.982;2023-11-18T01:22:49;0.00;;;0.00;;
81714;SDS011;71125;44.066;2.982;2023-11-18T01:25:16;0.05;;;0.05;;
81714;SDS011;71125;44.066;2.982;2023-11-18T01:27:42;0.00;;;0.00;;
81714;SDS011;71125;44.066;2.982;2023-11-18T01:30:12;0.00;;;0.00;;
81714;SDS011;71125;44.066;2.982;2023-11-18T01:32:38;0.15;;;0.15;;
81714;SDS011;71125;44.066;2.982;2023-11-18T01:35:08;0.00;;;0.00;;
81714;SDS011;71125;44.066;2.982;2023-11-18T01:37:37;3.30;;;0.52;;
81714;SDS011;71125;44.066;2.982;2023-11-18T01:42:30;0.00;;;0.00;;
81714;SDS011;71125;44.066;2.982;2023-11-18T01:47:24;0.00;;;0.00;;
81714;SDS011;71125;44.066;2.982;2023-11-18T01:49:51;0.00;;;0.00;;
81714;SDS011;71125;44.066;2.982;2023-11-18T01:52:17;0.00;;;0.00;;
81714;SDS011;71125;44.066;2.982;2023-11-18T01:54:43;0.00;;;0.00;;
81714;SDS011;71125;44.066;2.982;2023-11-18T01:57:10;0.00;;;0.00;;
81714;SDS011;71125;44.066;2.982;2023-11-18T01:59:36;0.00;;;0.00;;
81714;SDS011;71125;44.066;2.982;2023-11-18T02:02:05;0.00;;;0.00;;
81714;SDS011;71125;44.066;2.982;2023-11-18T02:04:31;0.00;;;0.00;;
81714;SDS011;71125;44.066;2.982;2023-11-18T02:06:58;0.45;;;0.45;;
81714;SDS011;71125;44.066;2.982;2023-11-18T02:09:28;0.00;;;0.00;;
81714;SDS011;71125;44.066;2.982;2023-11-18T02:14:38;0.00;;;0.00;;
81714;SDS011;71125;44.066;2.982;2023-11-18T02:17:05;0.10;;;0.10;;
81714;SDS011;71125;44.066;2.982;2023-11-18T02:19:32;0.20;;;0.20;;
81714;SDS011;71125;44.066;2.982;2023-11-18T02:22:01;0.00;;;0.00;;
81714;SDS011;71125;44.066;2.982;2023-11-18T02:26:56;0.00;;;0.00;;
81714;SDS011;71125;44.066;2.982;2023-11-18T02:29:23;0.00;;;0.00;;
81714;SDS011;71125;44.066;2.982;2023-11-18T02:31:50;0.00;;;0.00;;
81714;SDS011;71125;44.066;2.982;2023-11-18T02:34:18;0.00;;;0.00;;
81714;SDS011;71125;44.066;2.982;2023-11-18T02:36:48;0.00;;;0.00;;
81714;SDS011;71125;44.066;2.982;2023-11-18T02:42:14;4.00;;;1.52;;
81714;SDS011;71125;44.066;2.982;2023-11-18T02:44:40;9.00;;;2.40;;
81714;SDS011;71125;44.066;2.982;2023-11-18T02:47:07;6.03;;;1.90;;
81714;SDS011;71125;44.066;2.982;2023-11-18T02:49:35;28.38;;;2.67;;
81714;SDS011;71125;44.066;2.982;2023-11-18T02:52:01;5.78;;;1.83;;
81714;SDS011;71125;44.066;2.982;2023-11-18T02:54:28;9.70;;;3.10;;
81714;SDS011;71125;44.066;2.982;2023-11-18T02:56:54;8.55;;;2.60;;
81714;SDS011;71125;44.066;2.982;2023-11-18T02:59:20;12.30;;;2.65;;
81714;SDS011;71125;44.066;2.982;2023-11-18T03:01:46;9.88;;;2.40;;
81714;SDS011;71125;44.066;2.982;2023-11-18T03:04:12;7.63;;;2.28;;
81714;SDS011;71125;44.066;2.982;2023-11-18T03:06:39;6.47;;;2.00;;
81714;SDS011;71125;44.066;2.982;2023-11-18T03:09:06;7.80;;;2.50;;
81714;SDS011;71125;44.066;2.982;2023-11-18T03:11:35;8.15;;;2.63;;
81714;SDS011;71125;44.066;2.982;2023-11-18T03:14:01;14.13;;;3.33;;
81714;SDS011;71125;44.066;2.982;2023-11-18T03:16:29;6.18;;;2.20;;
81714;SDS011;71125;44.066;2.982;2023-11-18T03:18:55;13.75;;;2.38;;
81714;SDS011;71125;44.066;2.982;2023-11-18T03:21:22;9.20;;;1.77;;
81714;SDS011;71125;44.066;2.982;2023-11-18T03:23:48;9.05;;;2.10;;
81714;SDS011;71125;44.066;2.982;2023-11-18T03:26:14;6.70;;;2.10;;
81714;SDS011;71125;44.066;2.982;2023-11-18T03:28:40;7.72;;;2.25;;
81714;SDS011;71125;44.066;2.982;2023-11-18T03:31:07;6.82;;;2.65;;
81714;SDS011;71125;44.066;2.982;2023-11-18T03:33:34;7.00;;;2.10;;
81714;SDS011;71125;44.066;2.982;2023-11-18T03:36:00;6.25;;;1.58;;
81714;SDS011;71125;44.066;2.982;2023-11-18T03:38:26;6.13;;;2.50;;
81714;SDS011;71125;44.066;2.982;2023-11-18T03:40:55;13.00;;;2.60;;
81714;SDS011;71125;44.066;2.982;2023-11-18T03:43:23;11.45;;;3.70;;
81714;SDS011;71125;44.066;2.982;2023-11-18T03:45:49;12.13;;;2.60;;
81714;SDS011;71125;44.066;2.982;2023-11-18T03:48:17;13.50;;;2.75;;
81714;SDS011;71125;44.066;2.982;2023-11-18T03:53:10;6.75;;;2.17;;
81714;SDS011;71125;44.066;2.982;2023-11-18T03:55:36;9.40;;;2.30;;
81714;SDS011;71125;44.066;2.982;2023-11-18T03:58:02;4.50;;;1.90;;
81714;SDS011;71125;44.066;2.982;2023-11-18T04:00:28;10.07;;;2.58;;
81714;SDS011;71125;44.066;2.982;2023-11-18T04:02:55;6.72;;;1.92;;
81714;SDS011;71125;44.066;2.982;2023-11-18T04:05:24;5.95;;;2.40;;
81714;SDS011;71125;44.066;2.982;2023-11-18T04:07:50;7.88;;;2.15;;
81714;SDS011;71125;44.066;2.982;2023-11-18T04:12:43;4.05;;;1.90;;
81714;SDS011;71125;44.066;2.982;2023-11-18T04:15:12;4.13;;;2.13;;
81714;SDS011;71125;44.066;2.982;2023-11-18T04:17:38;6.88;;;2.00;;
81714;SDS011;71125;44.066;2.982;2023-11-18T04:20:05;7.07;;;2.58;;
81714;SDS011;71125;44.066;2.982;2023-11-18T04:22:42;4.97;;;2.45;;
81714;SDS011;71125;44.066;2.982;2023-11-18T04:25:08;5.57;;;1.98;;
81714;SDS011;71125;44.066;2.982;2023-11-18T04:27:35;6.82;;;2.38;;
81714;SDS011;71125;44.066;2.982;2023-11-18T04:30:01;8.82;;;2.22;;
81714;SDS011;71125;44.066;2.982;2023-11-18T04:34:53;14.13;;;3.47;;
81714;SDS011;71125;44.066;2.982;2023-11-18T04:37:20;13.30;;;4.45;;
81714;SDS011;71125;44.066;2.982;2023-11-18T04:39:46;23.50;;;5.05;;
81714;SDS011;71125;44.066;2.982;2023-11-18T04:42:12;48.15;;;5.97;;
81714;SDS011;71125;44.066;2.982;2023-11-18T04:44:38;12.07;;;3.05;;
81714;SDS011;71125;44.066;2.982;2023-11-18T04:47:04;9.68;;;2.95;;
81714;SDS011;71125;44.066;2.982;2023-11-18T04:49:30;6.93;;;2.03;;
81714;SDS011;71125;44.066;2.982;2023-11-18T04:51:56;13.40;;;2.17;;
81714;SDS011;71125;44.066;2.982;2023-11-18T04:54:24;4.90;;;1.88;;
81714;SDS011;71125;44.066;2.982;2023-11-18T04:56:50;32.45;;;2.92;;
81714;SDS011;71125;44.066;2.982;2023-11-18T04:59:16;23.08;;;3.72;;
81714;SDS011;71125;44.066;2.982;2023-11-18T05:01:42;9.05;;;2.30;;
81714;SDS011;71125;44.066;2.982;2023-11-18T05:04:08;24.00;;;4.45;;
81714;SDS011;71125;44.066;2.982;2023-11-18T05:06:36;29.17;;;4.72;;
81714;SDS011;71125;44.066;2.982;2023-11-18T05:09:02;43.53;;;6.25;;
81714;SDS011;71125;44.066;2.982;2023-11-18T05:11:32;39.13;;;5.75;;
81714;SDS011;71125;44.066;2.982;2023-11-18T05:13:58;72.18;;;8.75;;
81714;SDS011;71125;44.066;2.982;2023-11-18T05:16:24;52.35;;;10.48;;
81714;SDS011;71125;44.066;2.982;2023-11-18T05:18:50;26.08;;;7.05;;
81714;SDS011;71125;44.066;2.982;2023-11-18T05:21:16;22.50;;;5.03;;
81714;SDS011;71125;44.066;2.982;2023-11-18T05:23:43;36.00;;;6.30;;
81714;SDS011;71125;44.066;2.982;2023-11-18T05:26:09;20.80;;;4.28;;
81714;SDS011;71125;44.066;2.982;2023-11-18T05:28:35;29.58;;;4.57;;
81714;SDS011;71125;44.066;2.982;2023-11-18T05:31:01;21.70;;;4.80;;
81714;SDS011;71125;44.066;2.982;2023-11-18T05:33:28;18.58;;;4.40;;
81714;SDS011;71125;44.066;2.982;2023-11-18T05:35:55;21.13;;;3.30;;
81714;SDS011;71125;44.066;2.982;2023-11-18T05:38:21;22.65;;;2.75;;
81714;SDS011;71125;44.066;2.982;2023-11-18T05:40:48;50.70;;;17.23;;
81714;SDS011;71125;44.066;2.982;2023-11-18T05:43:29;17.75;;;3.75;;
81714;SDS011;71125;44.066;2.982;2023-11-18T05:46:02;44.50;;;3.97;;
81714;SDS011;71125;44.066;2.982;2023-11-18T05:48:46;40.95;;;3.50;;
81714;SDS011;71125;44.066;2.982;2023-11-18T05:51:12;44.42;;;3.70;;
81714;SDS011;71125;44.066;2.982;2023-11-18T05:53:41;26.73;;;3.88;;
81714;SDS011;71125;44.066;2.982;2023-11-18T05:56:10;70.40;;;5.15;;
81714;SDS011;71125;44.066;2.982;2023-11-18T06:01:04;56.92;;;5.20;;
81714;SDS011;71125;44.066;2.982;2023-11-18T06:03:33;41.45;;;7.53;;
81714;SDS011;71125;44.066;2.982;2023-11-18T06:06:02;62.95;;;9.32;;
81714;SDS011;71125;44.066;2.982;2023-11-18T06:08:29;74.75;;;11.00;;
81714;SDS011;71125;44.066;2.982;2023-11-18T06:10:57;86.63;;;9.65;;
81714;SDS011;71125;44.066;2.982;2023-11-18T06:13:23;110.43;;;7.55;;
81714;SDS011;71125;44.066;2.982;2023-11-18T06:15:50;60.28;;;4.72;;
81714;SDS011;71125;44.066;2.982;2023-11-18T06:18:17;77.15;;;5.45;;
81714;SDS011;71125;44.066;2.982;2023-11-18T06:20:44;51.45;;;5.18;;
81714;SDS011;71125;44.066;2.982;2023-11-18T06:23:10;142.27;;;6.78;;
81714;SDS011;71125;44.066;2.982;2023-11-18T06:25:36;82.70;;;7.25;;
81714;SDS011;71125;44.066;2.982;2023-11-18T06:28:02;105.78;;;6.35;;
81714;SDS011;71125;44.066;2.982;2023-11-18T06:30:28;121.03;;;8.05;;
81714;SDS011;71125;44.066;2.982;2023-11-18T06:32:55;63.58;;;6.10;;
81714;SDS011;71125;44.066;2.982;2023-11-18T06:35:21;209.73;;;10.18;;
81714;SDS011;71125;44.066;2.982;2023-11-18T06:37:47;187.52;;;8.40;;
81714;SDS011;71125;44.066;2.982;2023-11-18T06:40:13;115.95;;;6.30;;
81714;SDS011;71125;44.066;2.982;2023-11-18T06:42:43;102.47;;;8.23;;
81714;SDS011;71125;44.066;2.982;2023-11-18T06:45:12;102.53;;;7.28;;
81714;SDS011;71125;44.066;2.982;2023-11-18T06:47:38;59.72;;;8.73;;
81714;SDS011;71125;44.066;2.982;2023-11-18T06:50:09;90.57;;;7.38;;
81714;SDS011;71125;44.066;2.982;2023-11-18T06:52:40;83.03;;;6.93;;
81714;SDS011;71125;44.066;2.982;2023-11-18T06:55:07;78.75;;;7.65;;
81714;SDS011;71125;44.066;2.982;2023-11-18T06:57:33;116.32;;;9.23;;
81714;SDS011;71125;44.066;2.982;2023-11-18T06:59:59;84.97;;;7.57;;
81714;SDS011;71125;44.066;2.982;2023-11-18T07:02:25;69.18;;;6.05;;
81714;SDS011;71125;44.066;2.982;2023-11-18T07:04:51;79.85;;;7.95;;
81714;SDS011;71125;44.066;2.982;2023-11-18T07:07:17;65.95;;;7.05;;
81714;SDS011;71125;44.066;2.982;2023-11-18T07:09:43;52.55;;;7.45;;
81714;SDS011;71125;44.066;2.982;2023-11-18T07:12:09;46.58;;;7.00;;
81714;SDS011;71125;44.066;2.982;2023-11-18T07:14:35;31.40;;;4.28;;
81714;SDS011;71125;44.066;2.982;2023-11-18T07:17:02;34.72;;;4.72;;
81714;SDS011;71125;44.066;2.982;2023-11-18T07:19:29;19.27;;;3.55;;
81714;SDS011;71125;44.066;2.982;2023-11-18T07:21:58;25.77;;;3.95;;
81714;SDS011;71125;44.066;2.982;2023-11-18T07:26:50;21.30;;;4.38;;
81714;SDS011;71125;44.066;2.982;2023-11-18T07:29:16;11.57;;;3.28;;
81714;SDS011;71125;44.066;2.982;2023-11-18T07:31:42;19.95;;;2.95;;
81714;SDS011;71125;44.066;2.982;2023-11-18T07:34:10;11.55;;;4.20;;
81714;SDS011;71125;44.066;2.982;2023-11-18T07:36:36;16.00;;;3.95;;
81714;SDS011;71125;44.066;2.982;2023-11-18T07:39:02;23.45;;;3.97;;
81714;SDS011;71125;44.066;2.982;2023-11-18T07:41:28;17.88;;;5.78;;
81714;SDS011;71125;44.066;2.982;2023-11-18T07:43:56;25.40;;;6.88;;
81714;SDS011;71125;44.066;2.982;2023-11-18T07:46:22;48.17;;;7.15;;
81714;SDS011;71125;44.066;2.982;2023-11-18T07:48:51;34.33;;;5.45;;
81714;SDS011;71125;44.066;2.982;2023-11-18T07:51:19;19.65;;;4.85;;
81714;SDS011;71125;44.066;2.982;2023-11-18T07:53:48;18.08;;;5.40;;
81714;SDS011;71125;44.066;2.982;2023-11-18T07:56:15;34.88;;;4.80;;
81714;SDS011;71125;44.066;2.982;2023-11-18T07:58:42;18.08;;;4.03;;
81714;SDS011;71125;44.066;2.982;2023-11-18T08:01:10;12.43;;;3.75;;
81714;SDS011;71125;44.066;2.982;2023-11-18T08:03:36;7.60;;;3.33;;
81714;SDS011;71125;44.066;2.982;2023-11-18T08:06:03;12.68;;;3.90;;
81714;SDS011;71125;44.066;2.982;2023-11-18T08:08:32;12.18;;;4.28;;
81714;SDS011;71125;44.066;2.982;2023-11-18T08:10:58;9.73;;;4.22;;
81714;SDS011;71125;44.066;2.982;2023-11-18T08:13:25;7.88;;;3.72;;
81714;SDS011;71125;44.066;2.982;2023-11-18T08:15:51;7.88;;;3.25;;
81714;SDS011;71125;44.066;2.982;2023-11-18T08:18:17;9.73;;;3.45;;
81714;SDS011;71125;44.066;2.982;2023-11-18T08:20:46;7.40;;;3.25;;
81714;SDS011;71125;44.066;2.982;2023-11-18T08:23:12;8.30;;;2.72;;
81714;SDS011;71125;44.066;2.982;2023-11-18T08:25:38;8.35;;;3.05;;
81714;SDS011;71125;44.066;2.982;2023-11-18T08:28:08;6.55;;;2.78;;
81714;SDS011;71125;44.066;2.982;2023-11-18T08:30:36;4.82;;;2.15;;
81714;SDS011;71125;44.066;2.982;2023-11-18T08:33:03;7.20;;;2.90;;
81714;SDS011;71125;44.066;2.982;2023-11-18T08:35:29;4.85;;;2.38;;
81714;SDS011;71125;44.066;2.982;2023-11-18T08:37:56;5.32;;;2.55;;
81714;SDS011;71125;44.066;2.982;2023-11-18T08:40:23;3.28;;;1.80;;
81714;SDS011;71125;44.066;2.982;2023-11-18T08:42:53;5.63;;;2.72;;
81714;SDS011;71125;44.066;2.982;2023-11-18T08:45:21;8.15;;;3.70;;
81714;SDS011;71125;44.066;2.982;2023-11-18T08:47:52;5.20;;;2.20;;
81714;SDS011;71125;44.066;2.982;2023-11-18T08:50:20;7.63;;;4.03;;
81714;SDS011;71125;44.066;2.982;2023-11-18T08:52:48;6.13;;;3.30;;
81714;SDS011;71125;44.066;2.982;2023-11-18T08:55:18;6.05;;;3.35;;
81714;SDS011;71125;44.066;2.982;2023-11-18T08:57:51;6.65;;;3.30;;
81714;SDS011;71125;44.066;2.982;2023-11-18T09:00:29;4.68;;;2.63;;
81714;SDS011;71125;44.066;2.982;2023-11-18T09:03:14;6.78;;;3.22;;
81714;SDS011;71125;44.066;2.982;2023-11-18T09:08:25;5.68;;;2.78;;
81714;SDS011;71125;44.066;2.982;2023-11-18T09:10:52;6.05;;;2.35;;
81714;SDS011;71125;44.066;2.982;2023-11-18T09:13:19;3.97;;;2.03;;
81714;SDS011;71125;44.066;2.982;2023-11-18T09:15:46;4.40;;;2.10;;
81714;SDS011;71125;44.066;2.982;2023-11-18T09:18:12;4.88;;;1.60;;
81714;SDS011;71125;44.066;2.982;2023-11-18T09:20:38;2.83;;;1.50;;
81714;SDS011;71125;44.066;2.982;2023-11-18T09:23:05;3.47;;;1.70;;
81714;SDS011;71125;44.066;2.982;2023-11-18T09:25:32;3.78;;;1.30;;
81714;SDS011;71125;44.066;2.982;2023-11-18T09:28:01;3.28;;;1.48;;
81714;SDS011;71125;44.066;2.982;2023-11-18T09:30:37;1.83;;;1.15;;
81714;SDS011;71125;44.066;2.982;2023-11-18T09:33:04;3.15;;;1.17;;
81714;SDS011;71125;44.066;2.982;2023-11-18T09:35:39;3.03;;;1.40;;
81714;SDS011;71125;44.066;2.982;2023-11-18T09:38:08;2.83;;;1.30;;
81714;SDS011;71125;44.066;2.982;2023-11-18T09:40:34;3.20;;;1.52;;
81714;SDS011;71125;44.066;2.982;2023-11-18T09:43:08;4.40;;;1.60;;
81714;SDS011;71125;44.066;2.982;2023-11-18T09:45:36;2.65;;;1.45;;
81714;SDS011;71125;44.066;2.982;2023-11-18T09:48:03;2.67;;;1.20;;
81714;SDS011;71125;44.066;2.982;2023-11-18T09:50:32;3.00;;;1.38;;
81714;SDS011;71125;44.066;2.982;2023-11-18T09:53:03;2.53;;;1.45;;
81714;SDS011;71125;44.066;2.982;2023-11-18T09:55:34;2.08;;;1.20;;
81714;SDS011;71125;44.066;2.982;2023-11-18T09:58:06;1.70;;;1.10;;
81714;SDS011;71125;44.066;2.982;2023-11-18T10:00:38;1.77;;;0.93;;
81714;SDS011;71125;44.066;2.982;2023-11-18T10:03:07;1.38;;;0.60;;
81714;SDS011;71125;44.066;2.982;2023-11-18T10:05:35;4.97;;;0.90;;
81714;SDS011;71125;44.066;2.982;2023-11-18T10:08:05;3.35;;;1.00;;
81714;SDS011;71125;44.066;2.982;2023-11-18T10:10:31;2.10;;;0.80;;
81714;SDS011;71125;44.066;2.982;2023-11-18T10:13:03;3.03;;;1.38;;
81714;SDS011;71125;44.066;2.982;2023-11-18T10:15:33;4.13;;;1.08;;
81714;SDS011;71125;44.066;2.982;2023-11-18T10:17:59;3.85;;;0.90;;
81714;SDS011;71125;44.066;2.982;2023-11-18T10:23:07;2.70;;;1.10;;
81714;SDS011;71125;44.066;2.982;2023-11-18T10:25:35;1.52;;;0.70;;
81714;SDS011;71125;44.066;2.982;2023-11-18T10:28:05;4.63;;;0.80;;
81714;SDS011;71125;44.066;2.982;2023-11-18T10:30:31;1.25;;;0.70;;
81714;SDS011;71125;44.066;2.982;2023-11-18T10:32:58;1.77;;;0.90;;
81714;SDS011;71125;44.066;2.982;2023-11-18T10:35:32;2.75;;;1.05;;
81714;SDS011;71125;44.066;2.982;2023-11-18T10:38:01;2.85;;;0.82;;
81714;SDS011;71125;44.066;2.982;2023-11-18T10:40:31;1.70;;;0.85;;
81714;SDS011;71125;44.066;2.982;2023-11-18T10:43:02;1.50;;;0.77;;
81714;SDS011;71125;44.066;2.982;2023-11-18T10:45:35;1.60;;;0.80;;
81714;SDS011;71125;44.066;2.982;2023-11-18T10:48:05;1.63;;;0.80;;
81714;SDS011;71125;44.066;2.982;2023-11-18T10:50:32;2.05;;;1.30;;
81714;SDS011;71125;44.066;2.982;2023-11-18T10:53:01;1.80;;;0.93;;
81714;SDS011;71125;44.066;2.982;2023-11-18T10:55:35;1.35;;;0.75;;
81714;SDS011;71125;44.066;2.982;2023-11-18T10:58:02;1.98;;;0.95;;
81714;SDS011;71125;44.066;2.982;2023-11-18T11:00:30;2.50;;;1.10;;
81714;SDS011;71125;44.066;2.982;2023-11-18T11:03:12;2.28;;;1.05;;
81714;SDS011;71125;44.066;2.982;2023-11-18T11:05:39;1.77;;;1.02;;
81714;SDS011;71125;44.066;2.982;2023-11-18T11:08:07;4.72;;;1.70;;
81714;SDS011;71125;44.066;2.982;2023-11-18T11:10:34;3.75;;;1.27;;
81714;SDS011;71125;44.066;2.982;2023-11-18T11:13:01;2.65;;;1.20;;
81714;SDS011;71125;44.066;2.982;2023-11-18T11:15:32;2.08;;;1.00;;
81714;SDS011;71125;44.066;2.982;2023-11-18T11:18:03;5.03;;;1.33;;
81714;SDS011;71125;44.066;2.982;2023-11-18T11:20:34;3.03;;;0.95;;
81714;SDS011;71125;44.066;2.982;2023-11-18T11:25:55;1.45;;;0.77;;
81714;SDS011;71125;44.066;2.982;2023-11-18T11:28:26;2.65;;;0.90;;
81714;SDS011;71125;44.066;2.982;2023-11-18T11:33:39;3.30;;;1.50;;
81714;SDS011;71125;44.066;2.982;2023-11-18T11:36:07;1.35;;;0.65;;
81714;SDS011;71125;44.066;2.982;2023-11-18T11:38:37;3.78;;;1.00;;
81714;SDS011;71125;44.066;2.982;2023-11-18T11:41:06;0.70;;;0.40;;
81714;SDS011;71125;44.066;2.982;2023-11-18T11:43:34;2.28;;;0.65;;
81714;SDS011;71125;44.066;2.982;2023-11-18T11:46:03;2.80;;;0.43;;
81714;SDS011;71125;44.066;2.982;2023-11-18T11:48:35;0.63;;;0.28;;
81714;SDS011;71125;44.066;2.982;2023-11-18T11:54:09;2.90;;;0.40;;
81714;SDS011;71125;44.066;2.982;2023-11-18T11:56:43;1.67;;;0.60;;
81714;SDS011;71125;44.066;2.982;2023-11-18T11:59:12;2.65;;;0.70;;
81714;SDS011;71125;44.066;2.982;2023-11-18T12:01:39;1.52;;;0.70;;
81714;SDS011;71125;44.066;2.982;2023-11-18T12:04:11;1.10;;;0.43;;
81714;SDS011;71125;44.066;2.982;2023-11-18T12:06:46;1.52;;;0.70;;
81714;SDS011;71125;44.066;2.982;2023-11-18T12:09:18;2.47;;;0.50;;
81714;SDS011;71125;44.066;2.982;2023-11-18T12:11:47;1.50;;;0.43;;
81714;SDS011;71125;44.066;2.982;2023-11-18T12:14:14;1.33;;;0.60;;
81714;SDS011;71125;44.066;2.982;2023-11-18T12:17:08;0.80;;;0.47;;
81714;SDS011;71125;44.066;2.982;2023-11-18T12:19:39;1.08;;;0.50;;
81714;SDS011;71125;44.066;2.982;2023-11-18T12:22:18;2.42;;;0.30;;
81714;SDS011;71125;44.066;2.982;2023-11-18T12:30:30;0.95;;;0.40;;
81714;SDS011;71125;44.066;2.982;2023-11-18T12:32:59;0.50;;;0.32;;
81714;SDS011;71125;44.066;2.982;2023-11-18T12:40:50;3.45;;;0.52;;
81714;SDS011;71125;44.066;2.982;2023-11-18T12:43:17;0.95;;;0.40;;
81714;SDS011;71125;44.066;2.982;2023-11-18T12:48:43;2.80;;;0.63;;
81714;SDS011;71125;44.066;2.982;2023-11-18T12:51:11;4.30;;;0.68;;
81714;SDS011;71125;44.066;2.982;2023-11-18T12:53:53;1.00;;;0.43;;
81714;SDS011;71125;44.066;2.982;2023-11-18T12:56:23;1.20;;;0.50;;
81714;SDS011;71125;44.066;2.982;2023-11-18T12:58:51;1.70;;;0.70;;
81714;SDS011;71125;44.066;2.982;2023-11-18T13:01:17;1.60;;;0.50;;
81714;SDS011;71125;44.066;2.982;2023-11-18T13:03:44;1.27;;;0.55;;
81714;SDS011;71125;44.066;2.982;2023-11-18T13:06:16;3.05;;;0.80;;
81714;SDS011;71125;44.066;2.982;2023-11-18T13:08:45;1.70;;;0.70;;
81714;SDS011;71125;44.066;2.982;2023-11-18T13:11:11;1.13;;;0.63;;
81714;SDS011;71125;44.066;2.982;2023-11-18T13:13:44;2.20;;;0.82;;
81714;SDS011;71125;44.066;2.982;2023-11-18T13:16:10;1.48;;;0.70;;
81714;SDS011;71125;44.066;2.982;2023-11-18T13:18:51;1.20;;;0.50;;
81714;SDS011;71125;44.066;2.982;2023-11-18T13:23:51;2.22;;;1.00;;
81714;SDS011;71125;44.066;2.982;2023-11-18T13:26:18;2.63;;;0.68;;
81714;SDS011;71125;44.066;2.982;2023-11-18T13:28:48;1.55;;;0.90;;
81714;SDS011;71125;44.066;2.982;2023-11-18T13:31:17;2.08;;;0.65;;
81714;SDS011;71125;44.066;2.982;2023-11-18T13:33:44;1.92;;;0.60;;
81714;SDS011;71125;44.066;2.982;2023-11-18T13:36:13;4.15;;;1.15;;
81714;SDS011;71125;44.066;2.982;2023-11-18T13:38:40;2.10;;;0.90;;
81714;SDS011;71125;44.066;2.982;2023-11-18T13:41:07;1.83;;;0.70;;
81714;SDS011;71125;44.066;2.982;2023-11-18T13:43:46;3.95;;;0.30;;
81714;SDS011;71125;44.066;2.982;2023-11-18T13:46:18;1.92;;;0.60;;
81714;SDS011;71125;44.066;2.982;2023-11-18T13:48:48;2.03;;;0.50;;
81714;SDS011;71125;44.066;2.982;2023-11-18T13:51:29;1.30;;;0.57;;
81714;SDS011;71125;44.066;2.982;2023-11-18T13:56:52;1.42;;;0.65;;
81714;SDS011;71125;44.066;2.982;2023-11-18T13:59:18;2.67;;;0.52;;
81714;SDS011;71125;44.066;2.982;2023-11-18T14:01:44;1.27;;;0.60;;
81714;SDS011;71125;44.066;2.982;2023-11-18T14:04:11;1.45;;;0.57;;
81714;SDS011;71125;44.066;2.982;2023-11-18T14:06:45;1.65;;;0.52;;
81714;SDS011;71125;44.066;2.982;2023-11-18T14:09:19;1.17;;;0.50;;
81714;SDS011;71125;44.066;2.982;2023-11-18T14:11:57;2.08;;;0.60;;
81714;SDS011;71125;44.066;2.982;2023-11-18T14:14:28;0.95;;;0.43;;
81714;SDS011;71125;44.066;2.982;2023-11-18T14:17:18;0.70;;;0.30;;
81714;SDS011;71125;44.066;2.982;2023-11-18T14:20:40;0.73;;;0.32;;
81714;SDS011;71125;44.066;2.982;2023-11-18T14:23:50;2.78;;;0.60;;
81714;SDS011;71125;44.066;2.982;2023-11-18T14:26:47;2.00;;;0.60;;
81714;SDS011;71125;44.066;2.982;2023-11-18T14:31:39;2.63;;;0.63;;
81714;SDS011;71125;44.066;2.982;2023-11-18T14:34:08;2.38;;;0.80;;
81714;SDS011;71125;44.066;2.982;2023-11-18T14:36:36;1.55;;;0.77;;
81714;SDS011;71125;44.066;2.982;2023-11-18T14:39:05;3.42;;;1.23;;
81714;SDS011;71125;44.066;2.982;2023-11-18T14:41:45;12.52;;;4.32;;
81714;SDS011;71125;44.066;2.982;2023-11-18T14:44:34;19.40;;;9.80;;
81714;SDS011;71125;44.066;2.982;2023-11-18T14:50:00;62.08;;;26.25;;
81714;SDS011;71125;44.066;2.982;2023-11-18T15:14:01;0.93;;;0.20;;
81714;SDS011;71125;44.066;2.982;2023-11-18T15:19:43;0.13;;;0.10;;
81714;SDS011;71125;44.066;2.982;2023-11-18T15:24:54;0.57;;;0.10;;
81714;SDS011;71125;44.066;2.982;2023-11-18T15:51:04;1.15;;;0.40;;
81714;SDS011;71125;44.066;2.982;2023-11-18T15:56:06;1.77;;;0.25;;
81714;SDS011;71125;44.066;2.982;2023-11-18T15:58:35;1.02;;;0.25;;
81714;SDS011;71125;44.066;2.982;2023-11-18T16:01:02;1.70;;;0.30;;
81714;SDS011;71125;44.066;2.982;2023-11-18T16:03:28;0.38;;;0.10;;
81714;SDS011;71125;44.066;2.982;2023-11-18T16:05:55;3.22;;;0.20;;
81714;SDS011;71125;44.066;2.982;2023-11-18T16:08:22;0.45;;;0.20;;
81714;SDS011;71125;44.066;2.982;2023-11-18T16:13:51;0.60;;;0.10;;
81714;SDS011;71125;44.066;2.982;2023-11-18T16:41:49;4.10;;;1.38;;
81714;SDS011;71125;44.066;2.982;2023-11-18T17:05:50;8.35;;;3.58;;
81714;SDS011;71125;44.066;2.982;2023-11-18T17:29:10;12.98;;;4.85;;
81714;SDS011;71125;44.066;2.982;2023-11-18T17:34:12;7.28;;;2.28;;
81714;SDS011;71125;44.066;2.982;2023-11-18T17:47:01;5.85;;;2.45;;
81714;SDS011;71125;44.066;2.982;2023-11-18T18:21:06;22.10;;;7.70;;
81714;SDS011;71125;44.066;2.982;2023-11-18T18:23:32;26.27;;;10.25;;
81714;SDS011;71125;44.066;2.982;2023-11-18T18:26:00;28.38;;;11.27;;
81714;SDS011;71125;44.066;2.982;2023-11-18T18:28:26;26.02;;;10.48;;
81714;SDS011;71125;44.066;2.982;2023-11-18T18:30:55;17.15;;;7.50;;
81714;SDS011;71125;44.066;2.982;2023-11-18T18:33:22;14.43;;;5.85;;
81714;SDS011;71125;44.066;2.982;2023-11-18T18:38:40;15.10;;;5.15;;
81714;SDS011;71125;44.066;2.982;2023-11-18T18:41:06;14.00;;;5.22;;
81714;SDS011;71125;44.066;2.982;2023-11-18T18:43:32;34.08;;;13.70;;
81714;SDS011;71125;44.066;2.982;2023-11-18T18:45:59;35.30;;;15.25;;
81714;SDS011;71125;44.066;2.982;2023-11-18T18:50:51;17.33;;;7.03;;
81714;SDS011;71125;44.066;2.982;2023-11-18T18:53:17;15.57;;;7.38;;
81714;SDS011;71125;44.066;2.982;2023-11-18T18:58:09;17.30;;;8.25;;
81714;SDS011;71125;44.066;2.982;2023-11-18T19:03:06;17.17;;;7.43;;
81714;SDS011;71125;44.066;2.982;2023-11-18T19:05:41;22.70;;;8.60;;
81714;SDS011;71125;44.066;2.982;2023-11-18T19:08:11;21.77;;;8.65;;
81714;SDS011;71125;44.066;2.982;2023-11-18T19:10:38;16.67;;;4.55;;
81714;SDS011;71125;44.066;2.982;2023-11-18T19:13:08;34.67;;;14.50;;
81714;SDS011;71125;44.066;2.982;2023-11-18T19:15:34;22.45;;;9.93;;
81714;SDS011;71125;44.066;2.982;2023-11-18T19:18:18;18.95;;;9.10;;